createdAt,value
2022-08-07T00:00:54.995Z,101133.41
2022-08-07T00:03:36.600Z,101137.66
2022-08-07T00:06:06.196Z,101138.97
2022-08-07T00:08:37.043Z,101130.75
2022-08-07T00:11:19.858Z,101137.66
2022-08-07T00:13:58.624Z,101141.47
2022-08-07T00:16:28.279Z,101149.75
2022-08-07T00:18:56.980Z,101149.84
2022-08-07T00:21:56.858Z,101146.38
2022-08-07T00:24:14.626Z,101150.44
2022-08-07T00:26:58.652Z,101143.75
2022-08-07T00:29:37.024Z,101150.22
2022-08-07T00:32:06.816Z,101152.47
2022-08-07T00:34:35.735Z,101151.38
2022-08-07T00:37:04.927Z,101145.53
2022-08-07T00:39:34.586Z,101152.81
2022-08-07T00:42:05.929Z,101150.28
2022-08-07T00:44:38.384Z,101151.28
2022-08-07T00:47:16.019Z,101142.22
2022-08-07T00:50:21.169Z,101140.97
2022-08-07T00:52:47.760Z,101145.47
2022-08-07T00:55:17.490Z,101150.91
2022-08-07T00:57:56.361Z,101148.84
2022-08-07T01:00:25.831Z,101146.91
2022-08-07T01:02:54.694Z,101151.81
2022-08-07T01:05:25.238Z,101153.25
2022-08-07T01:07:53.783Z,101154.53
2022-08-07T01:10:23.888Z,101154.81
2022-08-07T01:12:54.655Z,101158.72
2022-08-07T01:16:00.882Z,101159.19
2022-08-07T01:18:18.345Z,101156.22
2022-08-07T01:20:57.518Z,101155.84
2022-08-07T01:23:39.447Z,101154.97
2022-08-07T01:26:13.773Z,101156.94
2022-08-07T01:28:48.686Z,101154.72
2022-08-07T01:31:30.050Z,101155.28
2022-08-07T01:34:12.173Z,101162.03
2022-08-07T01:36:44.168Z,101159.22
2022-08-07T01:39:19.800Z,101160.59
2022-08-07T01:42:37.750Z,101161.72
2022-08-07T01:44:48.141Z,101163.69
2022-08-07T01:48:19.073Z,101166.59
2022-08-07T01:50:08.276Z,101159.59
2022-08-07T01:52:38.364Z,101151.06
2022-08-07T01:55:22.374Z,101162.81
2022-08-07T01:58:06.819Z,101156.09
2022-08-07T02:00:49.321Z,101152.72
2022-08-07T02:03:26.515Z,101157.38
2022-08-07T02:06:30.730Z,101163.09
2022-08-07T02:09:05.855Z,101159.16
2022-08-07T02:12:03.341Z,101160.53
2022-08-07T02:14:40.235Z,101160.00
2022-08-07T02:17:27.576Z,101162.22
2022-08-07T02:20:07.751Z,101152.72
2022-08-07T02:22:47.792Z,101155.22
2022-08-07T02:26:10.735Z,101153.09
2022-08-07T02:28:24.447Z,101163.03
2022-08-07T02:30:56.901Z,101153.66
2022-08-07T02:33:42.296Z,101150.44
2022-08-07T02:36:30.727Z,101154.06
2022-08-07T02:39:16.230Z,101154.34
2022-08-07T02:41:54.182Z,101159.34
2022-08-07T02:44:30.312Z,101162.13
2022-08-07T02:47:06.374Z,101157.69
2022-08-07T02:49:56.002Z,101155.13
2022-08-07T02:52:32.389Z,101159.88
2022-08-07T02:55:27.714Z,101165.75
2022-08-07T02:57:59.131Z,101160.44
2022-08-07T03:00:31.210Z,101161.84
2022-08-07T03:03:00.609Z,101171.03
2022-08-07T03:05:37.893Z,101162.25
2022-08-07T03:08:10.571Z,101171.19
2022-08-07T03:10:46.717Z,101165.72
2022-08-07T03:13:20.267Z,101166.72
2022-08-07T03:15:58.465Z,101171.03
2022-08-07T03:18:35.084Z,101179.16
2022-08-07T03:21:08.446Z,101174.41
2022-08-07T03:24:17.780Z,101174.13
2022-08-07T03:26:31.777Z,101165.19
2022-08-07T03:29:03.566Z,101171.91
2022-08-07T03:31:42.706Z,101163.53
2022-08-07T03:34:18.675Z,101170.16
2022-08-07T03:36:52.941Z,101167.06
2022-08-07T03:39:46.405Z,101166.66
2022-08-07T03:42:13.274Z,101173.69
2022-08-07T03:44:53.073Z,101174.53
2022-08-07T03:47:23.760Z,101179.72
2022-08-07T03:49:53.477Z,101173.59
2022-08-07T03:52:29.330Z,101184.13
2022-08-07T03:55:06.868Z,101181.47
2022-08-07T03:58:34.252Z,101182.44
2022-08-07T04:00:33.875Z,101188.31
2022-08-07T04:03:06.679Z,101182.97
2022-08-07T04:05:42.280Z,101182.41
2022-08-07T04:08:22.282Z,101183.25
2022-08-07T04:12:21.124Z,101182.63
2022-08-07T04:14:09.403Z,101187.97
2022-08-07T04:16:35.279Z,101186.94
2022-08-07T04:19:14.621Z,101183.13
2022-08-07T04:22:05.422Z,101191.06
2022-08-07T04:24:43.311Z,101191.88
2022-08-07T04:27:25.370Z,101190.56
2022-08-07T04:30:02.261Z,101189.09
2022-08-07T04:32:48.134Z,101192.94
2022-08-07T04:35:35.177Z,101190.06
2022-08-07T04:38:08.971Z,101194.50
2022-08-07T04:40:52.979Z,101193.94
2022-08-07T04:44:10.578Z,101195.19
2022-08-07T04:46:34.430Z,101201.63
2022-08-07T04:49:24.408Z,101196.84
2022-08-07T04:52:01.783Z,101201.91
2022-08-07T04:54:35.285Z,101205.19
2022-08-07T04:58:13.157Z,101200.22
2022-08-07T05:00:19.020Z,101202.25
2022-08-07T05:03:17.309Z,101209.03
2022-08-07T05:06:02.173Z,101211.53
2022-08-07T05:09:01.035Z,101214.16
2022-08-07T05:11:58.429Z,101217.47
2022-08-07T05:14:53.190Z,101218.69
2022-08-07T05:17:51.727Z,101226.84
2022-08-07T05:20:12.150Z,101225.63
2022-08-07T05:22:43.258Z,101228.66
2022-08-07T05:25:25.901Z,101231.38
2022-08-07T05:28:21.362Z,101230.28
2022-08-07T05:30:57.256Z,101233.44
2022-08-07T05:33:28.805Z,101237.47
2022-08-07T05:35:59.933Z,101228.19
2022-08-07T05:38:59.790Z,101227.84
2022-08-07T05:41:21.914Z,101233.03
2022-08-07T05:44:12.225Z,101227.03
2022-08-07T05:46:46.151Z,101228.53
2022-08-07T05:49:24.360Z,101238.22
2022-08-07T05:51:56.354Z,101239.06
2022-08-07T05:54:30.959Z,101236.59
2022-08-07T05:57:08.346Z,101229.19
2022-08-07T05:59:56.112Z,101236.22
2022-08-07T06:02:31.945Z,101238.94
2022-08-07T06:05:06.446Z,101237.91
2022-08-07T06:08:14.134Z,101238.44
2022-08-07T06:10:26.560Z,101233.72
2022-08-07T06:12:56.912Z,101233.22
2022-08-07T06:15:42.220Z,101235.53
2022-08-07T06:18:14.344Z,101232.19
2022-08-07T06:20:50.994Z,101227.13
2022-08-07T06:24:37.908Z,101225.66
2022-08-07T06:26:27.402Z,101232.16
2022-08-07T06:29:01.353Z,101229.63
2022-08-07T06:31:38.791Z,101230.25
2022-08-07T06:34:20.519Z,101235.78
2022-08-07T06:36:51.972Z,101225.16
2022-08-07T06:40:16.391Z,101233.94
2022-08-07T06:42:19.306Z,101233.75
2022-08-07T06:45:06.569Z,101237.25
2022-08-07T06:47:57.189Z,101232.88
2022-08-07T06:50:30.434Z,101236.81
2022-08-07T06:53:04.109Z,101244.16
2022-08-07T06:55:52.651Z,101235.28
2022-08-07T06:58:27.614Z,101248.41
2022-08-07T07:01:08.984Z,101240.38
2022-08-07T07:03:48.584Z,101246.06
2022-08-07T07:06:26.426Z,101244.19
2022-08-07T07:08:56.980Z,101241.59
2022-08-07T07:12:08.780Z,101241.44
2022-08-07T07:14:17.165Z,101242.47
2022-08-07T07:16:50.974Z,101242.94
2022-08-07T07:19:55.019Z,101240.66
2022-08-07T07:22:36.434Z,101241.50
2022-08-07T07:26:31.006Z,101239.72
2022-08-07T07:28:02.308Z,101238.03
2022-08-07T07:30:38.480Z,101234.81
2022-08-07T07:33:13.586Z,101233.75
2022-08-07T07:36:05.272Z,101239.59
2022-08-07T07:38:36.047Z,101227.88
2022-08-07T07:41:08.752Z,101233.34
2022-08-07T07:43:47.990Z,101232.97
2022-08-07T07:46:37.966Z,101233.31
2022-08-07T07:50:34.881Z,101238.03
2022-08-07T07:52:20.624Z,101229.16
2022-08-07T07:54:52.535Z,101228.84
2022-08-07T07:57:52.586Z,101235.47
2022-08-07T08:00:18.283Z,101234.13
2022-08-07T08:03:04.621Z,101234.56
2022-08-07T08:05:50.885Z,101229.59
2022-08-07T08:08:34.603Z,101238.44
2022-08-07T08:11:05.841Z,101229.28
2022-08-07T08:13:53.171Z,101227.06
2022-08-07T08:16:31.235Z,101229.34
2022-08-07T08:19:17.298Z,101224.00
2022-08-07T08:22:08.147Z,101224.25
2022-08-07T08:25:18.718Z,101222.31
2022-08-07T08:27:56.002Z,101218.59
2022-08-07T08:30:27.143Z,101217.53
2022-08-07T08:32:59.933Z,101221.69
2022-08-07T08:35:39.616Z,101220.69
2022-08-07T08:38:25.803Z,101220.78
2022-08-07T08:41:00.011Z,101224.44
2022-08-07T08:43:42.221Z,101223.19
2022-08-07T08:46:15.741Z,101221.28
2022-08-07T08:48:50.960Z,101225.22
2022-08-07T08:51:49.478Z,101223.28
2022-08-07T08:54:24.196Z,101227.94
2022-08-07T08:56:54.906Z,101227.09
2022-08-07T08:59:29.222Z,101226.72
2022-08-07T09:02:02.419Z,101218.19
2022-08-07T09:04:41.597Z,101220.22
2022-08-07T09:07:13.075Z,101223.97
2022-08-07T09:09:47.557Z,101219.25
2022-08-07T09:12:31.644Z,101222.81
2022-08-07T09:16:21.619Z,101211.09
2022-08-07T09:18:22.510Z,101221.53
2022-08-07T09:21:01.338Z,101221.97
2022-08-07T09:24:30.859Z,101212.16
2022-08-07T09:26:32.953Z,101211.91
2022-08-07T09:30:00.712Z,101211.25
2022-08-07T09:32:01.251Z,101203.59
2022-08-07T09:34:34.138Z,101208.69
2022-08-07T09:37:06.486Z,101204.09
2022-08-07T09:39:57.764Z,101206.09
2022-08-07T09:42:40.052Z,101194.91
2022-08-07T09:47:24.152Z,101196.34
2022-08-07T09:48:16.399Z,101190.09
2022-08-07T09:51:02.706Z,101176.41
2022-08-07T09:53:40.793Z,101173.91
2022-08-07T09:56:44.569Z,101176.84
2022-08-07T09:59:46.189Z,101176.88
2022-08-07T10:04:03.830Z,101187.28
2022-08-07T10:06:12.253Z,101176.06
2022-08-07T10:09:34.206Z,101187.41
2022-08-07T10:12:26.444Z,101176.69
2022-08-07T10:15:08.659Z,101157.72
2022-08-07T10:18:08.861Z,101152.91
2022-08-07T10:20:45.561Z,101142.84
2022-08-07T10:24:06.776Z,101147.19
2022-08-07T10:27:10.413Z,101143.22
2022-08-07T10:29:54.282Z,101146.72
2022-08-07T10:32:53.196Z,101146.38
2022-08-07T10:35:53.689Z,101144.91
2022-08-07T10:38:46.465Z,101148.09
2022-08-07T10:41:51.292Z,101164.59
2022-08-07T10:44:19.486Z,101151.47
2022-08-07T10:47:11.814Z,101148.94
2022-08-07T10:49:51.286Z,101141.94
2022-08-07T10:52:33.592Z,101141.13
2022-08-07T10:55:32.501Z,101136.72
2022-08-07T10:58:12.119Z,101127.53
2022-08-07T11:00:50.445Z,101131.56
2022-08-07T11:03:37.873Z,101125.06
2022-08-07T11:06:23.214Z,101125.44
2022-08-07T11:09:00.745Z,101118.63
2022-08-07T11:11:35.624Z,101117.28
2022-08-07T11:14:44.286Z,101110.06
2022-08-07T11:17:12.724Z,101109.84
2022-08-07T11:19:47.373Z,101117.25
2022-08-07T11:22:32.479Z,101107.06
2022-08-07T11:25:12.988Z,101100.09
2022-08-07T11:28:02.999Z,101105.34
2022-08-07T11:30:42.387Z,101114.13
2022-08-07T11:33:19.358Z,101099.28
2022-08-07T11:36:25.208Z,101099.13
2022-08-07T11:39:08.019Z,101098.16
2022-08-07T11:42:00.208Z,101091.97
2022-08-07T11:44:52.584Z,101087.91
2022-08-07T11:47:55.858Z,101089.75
2022-08-07T11:50:44.543Z,101085.88
2022-08-07T11:53:36.356Z,101077.00
2022-08-07T11:56:26.853Z,101078.13
2022-08-07T11:59:22.237Z,101082.00
2022-08-07T12:02:03.739Z,101080.97
2022-08-07T12:04:58.609Z,101074.50
2022-08-07T12:07:38.923Z,101067.34
2022-08-07T12:10:21.031Z,101074.94
2022-08-07T12:12:56.860Z,101074.59
2022-08-07T12:15:58.047Z,101073.94
2022-08-07T12:18:29.665Z,101065.56
2022-08-07T12:21:06.377Z,101063.31
2022-08-07T12:24:05.737Z,101057.00
2022-08-07T12:26:46.801Z,101051.72
2022-08-07T12:29:37.908Z,101054.19
2022-08-07T12:32:13.965Z,101043.25
2022-08-07T12:34:49.480Z,101046.50
2022-08-07T12:37:23.432Z,101045.94
2022-08-07T12:39:59.600Z,101040.59
2022-08-07T12:42:32.211Z,101048.44
2022-08-07T12:45:09.012Z,101045.81
2022-08-07T12:47:44.179Z,101037.59
2022-08-07T12:50:38.460Z,101035.38
2022-08-07T12:53:18.002Z,101042.78
2022-08-07T12:56:03.433Z,101032.22
2022-08-07T12:58:39.627Z,101037.50
2022-08-07T13:01:21.365Z,101027.75
2022-08-07T13:04:06.302Z,101023.13
2022-08-07T13:08:11.654Z,101020.31
2022-08-07T13:10:37.161Z,101022.22
2022-08-07T13:13:48.918Z,101014.91
2022-08-07T13:16:11.968Z,101029.63
2022-08-07T13:18:50.756Z,101030.09
2022-08-07T13:21:37.647Z,101025.91
2022-08-07T13:24:20.372Z,101023.81
2022-08-07T13:26:59.340Z,101030.78
2022-08-07T13:29:42.414Z,101019.81
2022-08-07T13:32:31.814Z,101015.91
2022-08-07T13:35:08.664Z,101014.44
2022-08-07T13:37:43.691Z,101015.53
2022-08-07T13:40:36.239Z,101007.03
2022-08-07T13:43:16.158Z,101013.28
2022-08-07T13:46:11.104Z,101008.75
2022-08-07T13:48:39.062Z,101001.16
2022-08-07T13:51:28.153Z,100992.91
2022-08-07T13:54:01.709Z,100992.63
2022-08-07T13:56:36.051Z,100989.28
2022-08-07T13:59:14.036Z,100993.94
2022-08-07T14:01:50.996Z,100981.50
2022-08-07T14:04:35.576Z,100988.91
2022-08-07T14:07:09.255Z,100980.72
2022-08-07T14:10:17.623Z,100975.66
2022-08-07T14:12:41.516Z,100983.22
2022-08-07T14:15:22.429Z,100980.72
2022-08-07T14:18:23.990Z,100980.22
2022-08-07T14:20:54.527Z,100967.03
2022-08-07T14:23:31.587Z,100963.97
2022-08-07T14:26:28.125Z,100959.28
2022-08-07T14:29:08.849Z,100964.56
2022-08-07T14:31:42.948Z,100959.72
2022-08-07T14:34:27.188Z,100961.22
2022-08-07T14:37:02.010Z,100949.44
2022-08-07T14:40:15.934Z,100957.88
2022-08-07T14:42:31.446Z,100942.00
2022-08-07T14:45:21.663Z,100947.34
2022-08-07T14:50:44.954Z,100943.72
2022-08-07T14:53:15.585Z,100945.63
2022-08-07T14:58:42.876Z,100942.69
2022-08-07T15:01:22.238Z,100942.63
2022-08-07T15:04:05.812Z,100937.84
2022-08-07T15:06:36.486Z,100939.75
2022-08-07T15:09:59.591Z,100936.38
2022-08-07T15:12:02.948Z,100940.59
2022-08-07T15:14:35.908Z,100939.69
2022-08-07T15:17:32.674Z,100935.22
2022-08-07T15:20:33.021Z,100933.53
2022-08-07T15:23:20.164Z,100930.63
2022-08-07T15:25:56.655Z,100928.69
2022-08-07T15:32:00.470Z,100909.00
2022-08-07T15:37:04.013Z,100907.22
2022-08-07T15:39:56.653Z,100913.34
2022-08-07T15:42:57.892Z,100907.59
2022-08-07T15:45:57.226Z,100906.75
2022-08-07T15:48:25.655Z,100903.22
2022-08-07T15:53:53.107Z,100905.75
2022-08-07T15:56:25.976Z,100894.44
2022-08-07T15:58:59.010Z,100893.22
2022-08-07T16:01:38.870Z,100896.59
2022-08-07T16:04:15.353Z,100893.44
2022-08-07T16:06:50.467Z,100888.63
2022-08-07T16:09:40.936Z,100890.91
2022-08-07T16:12:29.226Z,100880.78
2022-08-07T16:15:54.413Z,100890.56
2022-08-07T16:18:49.869Z,100882.91
2022-08-07T16:22:01.835Z,100886.69
2022-08-07T16:24:02.303Z,100887.00
2022-08-07T16:26:59.133Z,100881.19
2022-08-07T16:30:11.388Z,100892.00
2022-08-07T16:32:36.890Z,100892.38
2022-08-07T16:35:51.700Z,100887.75
2022-08-07T16:39:02.425Z,100888.22
2022-08-07T16:41:48.548Z,100878.50
2022-08-07T16:45:14.380Z,100883.91
2022-08-07T16:47:57.074Z,100887.16
2022-08-07T16:50:38.777Z,100884.22
2022-08-07T16:54:02.225Z,100883.94
2022-08-07T16:56:19.817Z,100892.44
2022-08-07T16:59:14.356Z,100883.00
2022-08-07T17:01:59.750Z,100888.16
2022-08-07T17:04:51.004Z,100889.44
2022-08-07T17:07:55.969Z,100886.69
2022-08-07T17:10:54.333Z,100889.44
2022-08-07T17:14:19.370Z,100890.78
2022-08-07T17:16:43.563Z,100900.38
2022-08-07T17:20:00.705Z,100903.09
2022-08-07T17:22:16.588Z,100908.19
2022-08-07T17:25:01.287Z,100907.41
2022-08-07T17:27:39.906Z,100912.03
2022-08-07T17:30:26.653Z,100908.84
2022-08-07T17:33:39.107Z,100909.38
2022-08-07T17:36:04.304Z,100910.25
2022-08-07T17:38:52.427Z,100905.84
2022-08-07T17:42:04.014Z,100916.13
2022-08-07T17:44:33.783Z,100926.91
2022-08-07T17:47:17.092Z,100930.50
2022-08-07T17:49:52.957Z,100938.06
2022-08-07T17:52:29.727Z,100936.19
2022-08-07T17:55:07.148Z,100937.31
2022-08-07T17:57:56.242Z,100942.00
2022-08-07T18:00:34.674Z,100935.75
2022-08-07T18:03:25.570Z,100952.19
2022-08-07T18:06:02.859Z,100946.78
2022-08-07T18:09:01.077Z,100950.53
2022-08-07T18:12:16.482Z,100950.50
2022-08-07T18:14:38.391Z,100951.22
2022-08-07T18:18:39.640Z,100950.28
2022-08-07T18:21:11.869Z,100952.50
2022-08-07T18:23:42.649Z,100959.50
2022-08-07T18:26:16.352Z,100962.09
2022-08-07T18:28:58.434Z,100959.50
2022-08-07T18:31:38.771Z,100961.06
2022-08-07T18:34:37.159Z,100961.38
2022-08-07T18:38:58.725Z,100963.06
2022-08-07T18:40:42.453Z,100963.94
2022-08-07T18:43:15.088Z,100972.94
2022-08-07T18:46:24.748Z,100977.41
2022-08-07T18:50:04.860Z,100970.66
2022-08-07T18:52:51.729Z,100978.59
2022-08-07T18:54:38.531Z,100979.13
2022-08-07T18:57:30.524Z,100983.19
2022-08-07T19:00:33.946Z,100980.41
2022-08-07T19:03:03.772Z,100980.63
2022-08-07T19:06:03.267Z,100978.22
2022-08-07T19:08:46.559Z,100986.56
2022-08-07T19:11:35.348Z,100986.31
2022-08-07T19:14:19.869Z,100991.75
2022-08-07T19:17:07.046Z,100986.28
2022-08-07T19:19:51.091Z,100979.53
2022-08-07T19:22:31.423Z,100982.47
2022-08-07T19:25:06.914Z,100988.41
2022-08-07T19:28:29.453Z,100988.56
2022-08-07T19:31:03.754Z,100983.84
2022-08-07T19:33:17.232Z,100985.44
2022-08-07T19:35:54.680Z,100984.28
2022-08-07T19:38:25.561Z,100985.84
2022-08-07T19:41:00.553Z,100983.53
2022-08-07T19:43:48.737Z,100990.28
2022-08-07T19:46:26.370Z,100990.53
2022-08-07T19:48:59.527Z,100995.16
2022-08-07T19:51:52.229Z,100990.31
2022-08-07T19:54:34.867Z,100995.38
2022-08-07T19:58:02.616Z,100990.38
2022-08-07T20:00:08.903Z,100996.75
2022-08-07T20:02:53.376Z,100999.97
2022-08-07T20:05:28.198Z,100993.66
2022-08-07T20:08:01.929Z,100997.69
2022-08-07T20:10:54.358Z,101001.28
2022-08-07T20:13:27.050Z,100998.78
2022-08-07T20:16:02.281Z,100998.13
2022-08-07T20:18:34.560Z,101006.50
2022-08-07T20:21:21.168Z,101001.66
2022-08-07T20:24:01.121Z,101001.19
2022-08-07T20:26:32.773Z,101001.06
2022-08-07T20:29:46.651Z,101001.59
2022-08-07T20:32:02.235Z,101004.34
2022-08-07T20:34:49.247Z,101006.19
2022-08-07T20:37:23.809Z,101002.53
2022-08-07T20:40:04.114Z,101001.41
2022-08-07T20:42:35.406Z,101004.78
2022-08-07T20:45:33.298Z,101005.31
2022-08-07T20:47:58.651Z,101006.81
2022-08-07T20:50:30.301Z,101002.84
2022-08-07T20:52:59.636Z,101008.69
2022-08-07T20:55:31.949Z,101003.00
2022-08-07T20:58:04.007Z,101006.88
2022-08-07T21:00:44.496Z,101007.06
2022-08-07T21:03:19.221Z,101005.41
2022-08-07T21:05:56.544Z,101000.19
2022-08-07T21:08:35.060Z,101000.72
2022-08-07T21:11:11.920Z,101006.41
2022-08-07T21:13:57.474Z,100998.91
2022-08-07T21:16:32.075Z,101008.56
2022-08-07T21:19:01.485Z,101014.25
2022-08-07T21:21:33.307Z,101003.56
2022-08-07T21:24:28.381Z,101004.72
2022-08-07T21:27:06.949Z,101006.06
2022-08-07T21:29:43.551Z,101016.44
2022-08-07T21:32:47.266Z,101011.41
2022-08-07T21:36:04.928Z,101003.41
2022-08-07T21:38:14.247Z,101018.59
2022-08-07T21:40:47.461Z,101018.25
2022-08-07T21:43:24.578Z,101008.75
2022-08-07T21:46:24.746Z,101018.59
2022-08-07T21:49:05.243Z,101010.59
2022-08-07T21:51:54.902Z,101015.75
2022-08-07T21:54:30.878Z,101009.91
2022-08-07T21:57:15.958Z,101017.25
2022-08-07T22:00:07.241Z,101010.56
2022-08-07T22:02:42.730Z,101020.09
2022-08-07T22:05:44.386Z,101012.72
2022-08-07T22:08:13.685Z,101019.53
2022-08-07T22:10:42.920Z,101022.88
2022-08-07T22:13:16.070Z,101019.88
2022-08-07T22:16:39.685Z,101022.84
2022-08-07T22:18:41.866Z,101018.16
2022-08-07T22:21:19.204Z,101019.50
2022-08-07T22:23:53.536Z,101022.97
2022-08-07T22:26:25.632Z,101019.94
2022-08-07T22:29:00.748Z,101026.44
2022-08-07T22:32:00.390Z,101030.09
2022-08-07T22:34:35.655Z,101027.44
2022-08-07T22:37:19.468Z,101020.78
2022-08-07T22:40:00.599Z,101017.44
2022-08-07T22:42:35.319Z,101021.56
2022-08-07T22:45:10.978Z,101013.03
2022-08-07T22:48:31.538Z,101027.72
2022-08-07T22:51:23.369Z,101022.88
2022-08-07T22:54:06.588Z,101022.00
2022-08-07T22:56:48.927Z,101021.31
2022-08-07T22:59:47.100Z,101017.81
2022-08-07T23:02:27.659Z,101027.97
2022-08-07T23:06:08.567Z,101028.28
2022-08-07T23:08:32.461Z,101035.31
2022-08-07T23:11:16.458Z,101032.94
2022-08-07T23:14:15.358Z,101031.44
2022-08-07T23:17:00.306Z,101030.09
2022-08-07T23:19:58.048Z,101034.75
2022-08-07T23:22:39.663Z,101042.22
2022-08-07T23:25:20.788Z,101035.50
2022-08-07T23:28:21.672Z,101032.50
2022-08-07T23:31:11.485Z,101040.16
2022-08-07T23:34:33.814Z,101042.81
2022-08-07T23:37:17.711Z,101045.47
2022-08-07T23:39:44.085Z,101053.16
2022-08-07T23:42:21.704Z,101046.28
2022-08-07T23:45:15.346Z,101049.28
2022-08-07T23:48:07.226Z,101046.41
2022-08-07T23:50:41.150Z,101054.03
2022-08-07T23:53:51.388Z,101048.63
2022-08-07T23:56:21.415Z,101051.47
2022-08-07T23:59:10.935Z,101050.63
